N417JT KFRG-KMDW
Flight info
| Callsign | N417JT |
|---|---|
| Flight time | N/A |
| Altitude | 30000 |
| Route | DEEZZ5 CANDR J60 DJB ASHEN PANGG7 |
| Aircraft | SF50/L-BDGRSWY/LB2U2 |
Departure
| Time | 2026-05-04 03:20 |
|---|---|
| Airport | Republic Airport (KFRG) |
Arrival
| Time | N/A |
|---|---|
| Airport | Chicago Midway International Airport (KMDW) |
| Time | Latitude | Longitude | Altitude | Speed | Heading |
|---|---|---|---|---|---|
| 2026-05-04 03:11 | 40.72890 | -73.41626 | 78 ft | 0 kts | 39° |
| 2026-05-04 03:11 | 40.72890 | -73.41627 | 78 ft | 0 kts | 39° |
| 2026-05-04 03:16 | 40.72891 | -73.41626 | 78 ft | 1 kts | 40° |
| 2026-05-04 03:16 | 40.72880 | -73.41616 | 73 ft | 2 kts | 194° |
| 2026-05-04 03:16 | 40.72899 | -73.41665 | 73 ft | 9 kts | 311° |
| 2026-05-04 03:17 | 40.72955 | -73.41690 | 79 ft | 11 kts | 35° |
| 2026-05-04 03:17 | 40.72949 | -73.41642 | 78 ft | 7 kts | 130° |
| 2026-05-04 03:17 | 40.72920 | -73.41574 | 76 ft | 10 kts | 70° |
| 2026-05-04 03:17 | 40.73004 | -73.41551 | 76 ft | 16 kts | 2° |
| 2026-05-04 03:18 | 40.73126 | -73.41552 | 76 ft | 19 kts | 358° |
| 2026-05-04 03:18 | 40.73269 | -73.41556 | 74 ft | 22 kts | 358° |
| 2026-05-04 03:18 | 40.73427 | -73.41559 | 69 ft | 22 kts | 1° |
| 2026-05-04 03:18 | 40.73576 | -73.41562 | 80 ft | 21 kts | 358° |
| 2026-05-04 03:19 | 40.73709 | -73.41561 | 81 ft | 16 kts | 13° |
| 2026-05-04 03:19 | 40.73785 | -73.41512 | 85 ft | 7 kts | 45° |
| 2026-05-04 03:19 | 40.73786 | -73.41459 | 86 ft | 8 kts | 142° |
| 2026-05-04 03:19 | 40.73626 | -73.41453 | 82 ft | 53 kts | 179° |
| 2026-05-04 03:20 | 40.73059 | -73.41438 | 127 ft | 103 kts | 179° |
| 2026-05-04 03:20 | 40.72287 | -73.41437 | 528 ft | 112 kts | 185° |
| 2026-05-04 03:20 | 40.71536 | -73.41170 | 1028 ft | 129 kts | 142° |
| 2026-05-04 03:20 | 40.71353 | -73.39953 | 1496 ft | 146 kts | 67° |
| 2026-05-04 03:21 | 40.72088 | -73.39165 | 1985 ft | 132 kts | 354° |
| 2026-05-04 03:21 | 40.72792 | -73.39618 | 2618 ft | 110 kts | 311° |
| 2026-05-04 03:21 | 40.73433 | -73.40327 | 3241 ft | 122 kts | 315° |
| 2026-05-04 03:21 | 40.73988 | -73.41047 | 4154 ft | 114 kts | 297° |
| 2026-05-04 03:22 | 40.74476 | -73.41993 | 4608 ft | 136 kts | 314° |
| 2026-05-04 03:22 | 40.75271 | -73.42813 | 5022 ft | 148 kts | 319° |
| 2026-05-04 03:22 | 40.76085 | -73.43622 | 5675 ft | 146 kts | 320° |
| 2026-05-04 03:22 | 40.76910 | -73.44418 | 6290 ft | 147 kts | 321° |
| 2026-05-04 03:23 | 40.77729 | -73.45209 | 6882 ft | 148 kts | 321° |
| 2026-05-04 03:23 | 40.78564 | -73.46011 | 7466 ft | 149 kts | 321° |
| 2026-05-04 03:23 | 40.79403 | -73.46816 | 8116 ft | 148 kts | 320° |
| 2026-05-04 03:23 | 40.80240 | -73.47621 | 8738 ft | 149 kts | 321° |
| 2026-05-04 03:24 | 40.81086 | -73.48432 | 9343 ft | 151 kts | 321° |
| 2026-05-04 03:24 | 40.81936 | -73.49249 | 9940 ft | 152 kts | 321° |
| 2026-05-04 03:24 | 40.82787 | -73.50068 | 10458 ft | 154 kts | 321° |
| 2026-05-04 03:24 | 40.83666 | -73.50914 | 10964 ft | 157 kts | 321° |
| 2026-05-04 03:25 | 40.84558 | -73.51770 | 11474 ft | 160 kts | 321° |
| 2026-05-04 03:25 | 40.85462 | -73.52641 | 11980 ft | 162 kts | 320° |
| 2026-05-04 03:25 | 40.86382 | -73.53527 | 12490 ft | 165 kts | 320° |
| 2026-05-04 03:25 | 40.87313 | -73.54425 | 12989 ft | 167 kts | 319° |
| 2026-05-04 03:26 | 40.88259 | -73.55337 | 13490 ft | 169 kts | 319° |
| 2026-05-04 03:26 | 40.89207 | -73.56251 | 13958 ft | 172 kts | 319° |
| 2026-05-04 03:26 | 40.90181 | -73.57187 | 14409 ft | 173 kts | 319° |
| 2026-05-04 03:26 | 40.91163 | -73.58135 | 14853 ft | 175 kts | 319° |
| 2026-05-04 03:27 | 40.92150 | -73.59084 | 15288 ft | 176 kts | 319° |
| 2026-05-04 03:27 | 40.93144 | -73.60045 | 15718 ft | 177 kts | 318° |
| 2026-05-04 03:27 | 40.94146 | -73.61009 | 16145 ft | 179 kts | 318° |
| 2026-05-04 03:27 | 40.95153 | -73.61985 | 16569 ft | 180 kts | 318° |
| 2026-05-04 03:28 | 40.96169 | -73.62965 | 16987 ft | 181 kts | 317° |
| 2026-05-04 03:28 | 40.97181 | -73.63946 | 17398 ft | 183 kts | 317° |
| 2026-05-04 03:28 | 40.98213 | -73.64943 | 17811 ft | 184 kts | 317° |
| 2026-05-04 03:28 | 40.99253 | -73.65950 | 18187 ft | 187 kts | 317° |
| 2026-05-04 03:29 | 41.00308 | -73.66972 | 18552 ft | 188 kts | 317° |
| 2026-05-04 03:29 | 41.01365 | -73.67994 | 18916 ft | 188 kts | 317° |
| 2026-05-04 03:29 | 41.02422 | -73.69014 | 19274 ft | 188 kts | 317° |
| 2026-05-04 03:29 | 41.03481 | -73.70042 | 19641 ft | 189 kts | 316° |
| 2026-05-04 03:30 | 41.04543 | -73.71069 | 19997 ft | 189 kts | 316° |
| 2026-05-04 03:30 | 41.05605 | -73.72098 | 20346 ft | 189 kts | 316° |
| 2026-05-04 03:30 | 41.06655 | -73.73117 | 20692 ft | 190 kts | 316° |
| 2026-05-04 03:30 | 41.07724 | -73.74155 | 21043 ft | 189 kts | 316° |
| 2026-05-04 03:31 | 41.08787 | -73.75187 | 21418 ft | 188 kts | 316° |
| 2026-05-04 03:31 | 41.09833 | -73.76219 | 21775 ft | 186 kts | 313° |
| 2026-05-04 03:31 | 41.10711 | -73.77435 | 22142 ft | 181 kts | 303° |
| 2026-05-04 03:31 | 41.11383 | -73.78818 | 22517 ft | 177 kts | 294° |
| 2026-05-04 03:32 | 41.11843 | -73.80318 | 22882 ft | 175 kts | 285° |
| 2026-05-04 03:32 | 41.12104 | -73.81864 | 23261 ft | 173 kts | 282° |
| 2026-05-04 03:32 | 41.12362 | -73.83422 | 23619 ft | 172 kts | 282° |
| 2026-05-04 03:32 | 41.12618 | -73.84972 | 23923 ft | 172 kts | 282° |
| 2026-05-04 03:33 | 41.12869 | -73.86519 | 24233 ft | 171 kts | 282° |
| 2026-05-04 03:33 | 41.13119 | -73.88060 | 24535 ft | 171 kts | 282° |
| 2026-05-04 03:33 | 41.13369 | -73.89599 | 24831 ft | 170 kts | 282° |
| 2026-05-04 03:33 | 41.13615 | -73.91137 | 25118 ft | 170 kts | 282° |
| 2026-05-04 03:34 | 41.13864 | -73.92669 | 25422 ft | 169 kts | 282° |